Time;durP1;ratioP1;P1;durP2;ratioP2;P2;SDS_P1;SDS_P2;PMS_P1;PMS_P2;Temp;Humidity;BMP_temperature;BMP_pressure;BME280_temperature;BME280_humidity;BME280_pressure;Samples;Min_cycle;Max_cycle;Signal;HPM_P1;HPM_P2
2023/08/13 00:01:42;;;;;;;3.78;2.00;;;18.80;99.90;;;;;;4985180;28;20054;-71
2023/08/13 00:04:27;;;;;;;4.63;2.15;;;18.70;99.90;;;;;;4984960;28;20052;-71
2023/08/13 00:07:13;;;;;;;7.28;2.30;;;18.70;99.90;;;;;;4966293;28;20103;-71
2023/08/13 00:09:59;;;;;;;3.20;2.00;;;18.70;99.90;;;;;;4984642;28;20096;-72
2023/08/13 00:12:47;;;;;;;5.07;2.17;;;18.70;99.90;;;;;;4996850;28;20856;-72
2023/08/13 00:15:33;;;;;;;4.63;2.63;;;18.70;99.90;;;;;;4994211;28;20041;-71
2023/08/13 00:18:19;;;;;;;7.30;2.45;;;18.60;99.90;;;;;;4980900;28;20261;-72
2023/08/13 00:21:05;;;;;;;9.57;3.15;;;18.60;99.90;;;;;;4970297;28;20049;-71
2023/08/13 00:23:50;;;;;;;5.03;2.28;;;18.60;99.90;;;;;;4976529;28;20576;-71
2023/08/13 00:26:37;;;;;;;3.13;2.28;;;18.60;99.90;;;;;;4965632;28;20050;-72
2023/08/13 00:29:22;;;;;;;6.45;2.42;;;18.60;99.90;;;;;;4991610;28;20045;-71
2023/08/13 00:32:08;;;;;;;4.20;2.30;;;18.60;99.90;;;;;;4975497;28;20050;-72
2023/08/13 00:34:54;;;;;;;5.90;2.50;;;18.60;99.90;;;;;;5002164;28;20046;-72
2023/08/13 00:37:40;;;;;;;7.07;2.42;;;18.50;99.90;;;;;;4985003;28;20037;-71
2023/08/13 00:40:27;;;;;;;3.70;2.67;;;18.50;99.90;;;;;;4975299;28;20709;-72
2023/08/13 00:43:13;;;;;;;5.78;2.63;;;18.50;99.90;;;;;;4992352;28;20045;-71
2023/08/13 00:45:59;;;;;;;5.07;2.40;;;18.50;99.90;;;;;;4973189;28;20042;-71
2023/08/13 00:48:45;;;;;;;6.32;2.70;;;18.50;99.90;;;;;;4993106;28;20052;-71
2023/08/13 00:51:31;;;;;;;3.53;2.17;;;18.40;99.90;;;;;;4987964;28;20748;-71
2023/08/13 00:54:17;;;;;;;5.97;2.60;;;18.40;99.90;;;;;;4967640;28;20037;-71
2023/08/13 00:57:03;;;;;;;5.35;2.33;;;18.40;99.90;;;;;;4976387;28;20052;-71
2023/08/13 00:59:50;;;;;;;9.15;2.40;;;18.40;99.90;;;;;;4968226;28;20138;-71
2023/08/13 01:02:37;;;;;;;3.67;2.45;;;18.30;99.90;;;;;;4968923;28;20050;-71
2023/08/13 01:05:27;;;;;;;5.80;2.22;;;18.40;99.90;;;;;;4995767;28;20050;-71
2023/08/13 01:08:16;;;;;;;5.07;2.60;;;18.30;99.90;;;;;;4989501;28;20047;-72
2023/08/13 01:11:09;;;;;;;7.10;2.60;;;18.30;99.90;;;;;;4981532;28;20049;-72
2023/08/13 01:14:03;;;;;;;8.85;3.70;;;18.30;99.90;;;;;;4981544;28;20034;-72
2023/08/13 01:16:49;;;;;;;5.18;3.42;;;18.30;99.90;;;;;;4982148;28;20377;-72
2023/08/13 01:19:35;;;;;;;6.15;3.35;;;18.20;99.90;;;;;;4976649;28;20037;-71
2023/08/13 01:22:24;;;;;;;11.25;4.93;;;18.20;99.90;;;;;;4995836;28;20470;-72
2023/08/13 01:25:11;;;;;;;5.60;3.78;;;18.20;99.90;;;;;;4979859;28;20463;-72
2023/08/13 01:28:03;;;;;;;6.18;4.15;;;18.20;99.90;;;;;;4995412;28;20045;-72
2023/08/13 01:30:52;;;;;;;6.45;3.50;;;18.20;99.90;;;;;;5006992;28;20170;-71
2023/08/13 01:33:40;;;;;;;10.65;3.92;;;18.20;99.90;;;;;;4981594;28;20052;-71
2023/08/13 01:36:26;;;;;;;5.95;3.47;;;18.10;99.90;;;;;;4983105;28;20165;-72
2023/08/13 01:39:12;;;;;;;6.60;3.78;;;18.10;99.90;;;;;;4987055;28;20042;-72
2023/08/13 01:41:58;;;;;;;5.80;3.70;;;18.10;99.90;;;;;;4983849;28;20041;-71
2023/08/13 01:44:44;;;;;;;8.60;3.40;;;18.10;99.90;;;;;;4982744;28;20095;-71
2023/08/13 01:47:30;;;;;;;7.40;3.40;;;18.10;99.90;;;;;;4977368;28;20045;-71
2023/08/13 01:50:16;;;;;;;9.80;3.17;;;18.10;99.90;;;;;;4982692;28;20512;-71
2023/08/13 01:53:02;;;;;;;7.72;3.65;;;18.00;99.90;;;;;;4977984;28;20038;-72
2023/08/13 01:55:48;;;;;;;7.55;3.60;;;18.00;99.90;;;;;;4977824;28;20340;-71
2023/08/13 01:58:34;;;;;;;6.00;3.83;;;18.00;99.90;;;;;;4990936;28;20048;-71
2023/08/13 02:01:20;;;;;;;6.32;3.15;;;18.00;99.90;;;;;;4973397;28;20042;-71
2023/08/13 02:04:06;;;;;;;4.28;2.67;;;18.00;99.90;;;;;;4995735;28;20046;-71
2023/08/13 02:06:52;;;;;;;5.55;3.00;;;18.00;99.90;;;;;;4995882;28;20721;-71
2023/08/13 02:09:38;;;;;;;5.63;2.85;;;18.00;99.90;;;;;;4980685;28;20041;-72
2023/08/13 02:12:24;;;;;;;6.32;3.25;;;18.00;99.90;;;;;;4963207;28;20046;-72
2023/08/13 02:15:10;;;;;;;6.32;2.60;;;17.90;99.90;;;;;;4986659;28;20034;-71
2023/08/13 02:17:56;;;;;;;7.75;3.30;;;17.90;99.90;;;;;;5007009;28;20100;-71
2023/08/13 02:20:43;;;;;;;4.57;3.00;;;17.90;99.90;;;;;;5010046;28;20046;-71
2023/08/13 02:23:29;;;;;;;4.97;3.05;;;17.90;99.90;;;;;;4983351;28;20052;-72
2023/08/13 02:26:15;;;;;;;4.07;2.78;;;17.80;99.90;;;;;;4982451;28;20042;-71
2023/08/13 02:29:01;;;;;;;7.65;2.90;;;17.80;99.90;;;;;;4998767;28;20058;-72
2023/08/13 02:31:47;;;;;;;6.47;3.13;;;17.80;99.90;;;;;;4999913;28;20041;-71
2023/08/13 02:34:33;;;;;;;9.60;2.88;;;17.70;99.90;;;;;;4971559;28;20058;-72
2023/08/13 02:37:19;;;;;;;5.78;2.65;;;17.70;99.90;;;;;;4992972;28;20038;-72
2023/08/13 02:40:06;;;;;;;3.85;2.70;;;17.70;99.90;;;;;;4973109;28;20152;-72
2023/08/13 02:42:52;;;;;;;7.18;4.03;;;17.70;99.90;;;;;;4984361;28;20059;-72
2023/08/13 02:45:38;;;;;;;7.35;2.83;;;17.70;99.90;;;;;;4998352;28;20121;-72
2023/08/13 02:48:24;;;;;;;5.07;2.88;;;17.60;99.90;;;;;;4992461;28;20042;-71
2023/08/13 02:51:10;;;;;;;4.15;2.92;;;17.60;99.90;;;;;;4965336;28;20557;-72
2023/08/13 02:53:56;;;;;;;4.50;3.28;;;17.60;99.90;;;;;;4999744;28;20123;-72
2023/08/13 02:56:42;;;;;;;7.55;4.00;;;17.60;99.90;;;;;;4998850;28;20042;-72
2023/08/13 02:59:28;;;;;;;5.75;3.10;;;17.60;99.90;;;;;;4983819;28;20494;-72
2023/08/13 03:02:16;;;;;;;7.93;3.42;;;17.50;99.90;;;;;;4985027;28;20121;-72
2023/08/13 03:05:02;;;;;;;6.53;3.53;;;17.50;99.90;;;;;;4971907;28;20076;-72
2023/08/13 03:07:48;;;;;;;4.75;3.20;;;17.50;99.90;;;;;;4997798;28;20490;-72
2023/08/13 03:10:34;;;;;;;6.07;3.60;;;17.50;99.90;;;;;;4997583;28;20061;-71
2023/08/13 03:13:20;;;;;;;5.40;3.67;;;17.50;99.90;;;;;;4969644;28;20057;-72
2023/08/13 03:16:06;;;;;;;10.00;4.45;;;17.40;99.90;;;;;;4962170;28;20046;-72
2023/08/13 03:18:52;;;;;;;6.63;3.78;;;17.50;99.90;;;;;;4997358;28;20703;-72
2023/08/13 03:21:38;;;;;;;6.90;3.70;;;17.40;99.90;;;;;;4984340;28;20171;-71
2023/08/13 03:24:24;;;;;;;6.63;3.78;;;17.40;99.90;;;;;;4995863;28;20107;-72
2023/08/13 03:27:10;;;;;;;8.88;4.82;;;17.40;99.90;;;;;;4971474;28;20038;-72
2023/08/13 03:29:56;;;;;;;7.57;3.83;;;17.40;99.90;;;;;;5001963;28;20057;-72
2023/08/13 03:32:42;;;;;;;7.97;4.07;;;17.40;99.90;;;;;;4955952;28;1162807;-72
2023/08/13 03:35:28;;;;;;;8.98;4.60;;;17.30;99.90;;;;;;4979098;28;20068;-72
2023/08/13 03:38:14;;;;;;;5.00;3.80;;;17.40;99.90;;;;;;4998488;28;20038;-71
2023/08/13 03:41:00;;;;;;;7.43;4.00;;;17.40;99.90;;;;;;4970869;28;20056;-71
2023/08/13 03:43:46;;;;;;;7.75;4.63;;;17.40;99.90;;;;;;4984162;28;20132;-72
2023/08/13 03:46:32;;;;;;;5.38;4.72;;;17.40;99.90;;;;;;4996462;28;20042;-71
2023/08/13 03:49:18;;;;;;;9.20;4.60;;;17.50;99.90;;;;;;4987037;28;20037;-72
2023/08/13 03:52:04;;;;;;;8.52;4.70;;;17.40;99.90;;;;;;4986273;28;20069;-76
2023/08/13 03:54:50;;;;;;;7.85;4.35;;;17.40;99.90;;;;;;4984600;28;20044;-71
2023/08/13 03:57:36;;;;;;;9.05;4.40;;;17.40;99.90;;;;;;4977078;28;20052;-71
2023/08/13 04:00:22;;;;;;;6.88;4.20;;;17.40;99.90;;;;;;4999524;28;20038;-72
2023/08/13 04:03:09;;;;;;;7.10;4.32;;;17.40;99.90;;;;;;4985810;28;20513;-71
2023/08/13 04:05:55;;;;;;;8.70;4.82;;;17.30;99.90;;;;;;4985167;28;20045;-71
2023/08/13 04:08:41;;;;;;;7.18;3.80;;;17.30;99.90;;;;;;4960762;28;20446;-72
2023/08/13 04:11:27;;;;;;;7.35;4.72;;;17.30;99.90;;;;;;4997845;28;20112;-71
2023/08/13 04:14:13;;;;;;;5.80;4.10;;;17.30;99.90;;;;;;4967898;28;20042;-71
2023/08/13 04:16:59;;;;;;;7.47;4.07;;;17.30;99.90;;;;;;4999873;28;20498;-71
2023/08/13 04:19:45;;;;;;;5.95;3.90;;;17.30;99.90;;;;;;5012683;28;20077;-71
2023/08/13 04:22:31;;;;;;;9.10;3.92;;;17.30;99.90;;;;;;4983016;28;20123;-72
2023/08/13 04:25:17;;;;;;;11.43;4.50;;;17.30;99.90;;;;;;4996896;28;20046;-72
2023/08/13 04:28:03;;;;;;;6.78;4.35;;;17.40;99.90;;;;;;5011504;28;20038;-72
2023/08/13 04:30:49;;;;;;;7.78;4.30;;;17.30;99.90;;;;;;4997474;28;20059;-72
2023/08/13 04:33:35;;;;;;;5.20;4.07;;;17.30;99.90;;;;;;4992198;28;20042;-72
2023/08/13 04:36:21;;;;;;;5.82;3.83;;;17.30;99.90;;;;;;4988657;28;20495;-73
2023/08/13 04:39:07;;;;;;;7.07;4.28;;;17.30;99.90;;;;;;4991638;28;20104;-72
2023/08/13 04:41:57;;;;;;;6.68;4.22;;;17.30;99.90;;;;;;4964385;28;20076;-73
2023/08/13 04:44:43;;;;;;;5.43;4.20;;;17.20;99.90;;;;;;4990666;28;20042;-72
2023/08/13 04:47:29;;;;;;;5.90;3.97;;;17.30;99.90;;;;;;4990988;28;20052;-72
2023/08/13 04:50:15;;;;;;;8.65;4.30;;;17.30;99.90;;;;;;4982681;28;20034;-72
2023/08/13 04:53:01;;;;;;;10.52;4.10;;;17.30;99.90;;;;;;4990251;28;20042;-72
2023/08/13 04:55:47;;;;;;;9.57;4.18;;;17.30;99.90;;;;;;4976351;28;20060;-73
2023/08/13 04:58:34;;;;;;;7.10;3.90;;;17.30;99.90;;;;;;4983758;28;20495;-72
2023/08/13 05:01:20;;;;;;;10.20;3.90;;;17.40;99.90;;;;;;4958668;28;20527;-72
2023/08/13 05:04:06;;;;;;;6.55;3.80;;;17.40;99.90;;;;;;4988453;28;20050;-72
2023/08/13 05:06:52;;;;;;;9.90;3.80;;;17.40;99.90;;;;;;4977154;28;20081;-72
2023/08/13 05:09:38;;;;;;;7.43;4.03;;;17.40;99.90;;;;;;4977151;28;20047;-72
2023/08/13 05:12:24;;;;;;;7.47;4.10;;;17.50;99.90;;;;;;4974120;28;20047;-72
2023/08/13 05:15:10;;;;;;;8.70;4.47;;;17.50;99.90;;;;;;4974461;28;20117;-72
2023/08/13 05:17:57;;;;;;;5.82;3.95;;;17.50;99.90;;;;;;4989226;28;20044;-72
2023/08/13 05:20:43;;;;;;;5.45;3.60;;;17.50;99.90;;;;;;4978404;28;20431;-72
2023/08/13 05:23:29;;;;;;;5.82;4.13;;;17.50;99.90;;;;;;4952785;28;20744;-72
2023/08/13 05:26:15;;;;;;;11.20;4.05;;;17.50;99.90;;;;;;4989517;28;20046;-72
2023/08/13 05:29:03;;;;;;;6.03;4.25;;;17.50;99.90;;;;;;4981170;28;20049;-72
2023/08/13 05:31:49;;;;;;;9.95;4.80;;;17.50;99.90;;;;;;4976847;28;20664;-72
2023/08/13 05:34:35;;;;;;;7.95;4.70;;;17.50;99.90;;;;;;4989904;28;20061;-72
2023/08/13 05:37:20;;;;;;;7.15;3.80;;;17.50;99.90;;;;;;4985766;28;20038;-72
2023/08/13 05:40:08;;;;;;;6.78;3.85;;;17.60;99.90;;;;;;4989584;28;20048;-72
2023/08/13 05:42:54;;;;;;;6.70;4.05;;;17.50;99.90;;;;;;4966923;28;20073;-72
2023/08/13 05:45:41;;;;;;;8.63;3.83;;;17.50;99.90;;;;;;4990017;28;20045;-72
2023/08/13 05:48:27;;;;;;;7.43;3.70;;;17.60;99.90;;;;;;4960410;28;20038;-72
2023/08/13 05:51:13;;;;;;;7.20;4.05;;;17.60;99.90;;;;;;4961890;28;20046;-72
2023/08/13 05:53:59;;;;;;;8.63;4.22;;;17.60;99.90;;;;;;4987752;28;20073;-72
2023/08/13 05:56:45;;;;;;;8.80;4.05;;;17.60;99.90;;;;;;4976529;28;20525;-72
2023/08/13 05:59:33;;;;;;;6.00;4.18;;;17.60;99.90;;;;;;4963080;28;20156;-72
2023/08/13 06:02:19;;;;;;;5.70;3.97;;;17.60;99.90;;;;;;4967491;28;20042;-72
2023/08/13 06:05:06;;;;;;;11.18;4.45;;;17.70;99.90;;;;;;4976790;28;20042;-72
2023/08/13 06:07:52;;;;;;;10.10;4.77;;;17.70;99.90;;;;;;4975386;28;20068;-72
2023/08/13 06:10:38;;;;;;;8.30;4.13;;;17.70;99.90;;;;;;4977316;28;20663;-72
2023/08/13 06:13:24;;;;;;;8.32;4.03;;;17.70;99.90;;;;;;4988294;28;20049;-72
2023/08/13 06:16:10;;;;;;;9.45;4.20;;;17.80;99.90;;;;;;4970923;28;20039;-74
2023/08/13 06:18:56;;;;;;;6.63;4.03;;;17.80;99.90;;;;;;4979665;28;20146;-72
2023/08/13 06:21:43;;;;;;;7.40;4.53;;;17.90;99.90;;;;;;4973244;28;20118;-72
2023/08/13 06:24:29;;;;;;;8.65;4.30;;;17.90;99.90;;;;;;4976888;28;20046;-72
2023/08/13 06:27:15;;;;;;;7.75;4.45;;;18.00;99.90;;;;;;4989621;28;20042;-73
2023/08/13 06:30:02;;;;;;;8.30;4.57;;;18.00;99.90;;;;;;4984254;28;20046;-72
2023/08/13 06:32:48;;;;;;;8.05;4.43;;;18.00;99.90;;;;;;4973780;28;20069;-72
2023/08/13 06:35:33;;;;;;;7.10;5.07;;;18.10;99.90;;;;;;5015679;28;20111;-72
2023/08/13 06:38:20;;;;;;;7.07;4.57;;;18.10;99.90;;;;;;5008933;28;20037;-73
2023/08/13 06:41:06;;;;;;;7.82;4.68;;;18.20;99.90;;;;;;5001000;28;20111;-73
2023/08/13 06:43:51;;;;;;;9.20;4.35;;;18.30;99.90;;;;;;4991651;28;20132;-72
2023/08/13 06:46:37;;;;;;;11.20;4.80;;;18.30;99.90;;;;;;4988818;28;20140;-71
2023/08/13 06:49:23;;;;;;;6.78;4.57;;;18.40;99.90;;;;;;4999569;28;20048;-72
2023/08/13 06:52:10;;;;;;;8.15;4.97;;;18.50;99.90;;;;;;4998426;28;20763;-71
2023/08/13 06:54:56;;;;;;;9.38;4.40;;;18.50;99.90;;;;;;4999842;28;20146;-72
2023/08/13 06:57:42;;;;;;;8.75;4.63;;;18.50;99.90;;;;;;4999582;28;20038;-72
2023/08/13 07:00:27;;;;;;;7.20;4.75;;;18.60;99.90;;;;;;5020064;28;20045;-74
2023/08/13 07:03:13;;;;;;;7.40;4.70;;;18.70;99.90;;;;;;5002542;28;20048;-74
2023/08/13 07:05:59;;;;;;;7.93;3.92;;;18.70;99.90;;;;;;4990963;28;20041;-72
2023/08/13 07:08:45;;;;;;;8.43;4.68;;;18.80;99.90;;;;;;5020709;28;20046;-74
2023/08/13 07:11:32;;;;;;;6.90;4.35;;;18.80;99.90;;;;;;4991999;28;20493;-72
2023/08/13 07:14:18;;;;;;;9.75;4.72;;;18.90;99.90;;;;;;5000023;28;20069;-72
2023/08/13 07:17:04;;;;;;;7.80;4.35;;;18.90;99.90;;;;;;4975738;28;20049;-72
2023/08/13 07:19:50;;;;;;;10.95;4.65;;;18.90;99.90;;;;;;4978723;28;20076;-71
2023/08/13 07:22:39;;;;;;;6.35;4.22;;;18.90;99.90;;;;;;4995676;28;20076;-71
2023/08/13 07:25:25;;;;;;;8.60;4.40;;;19.00;99.90;;;;;;4980689;28;20125;-71
2023/08/13 07:28:11;;;;;;;5.72;3.80;;;19.10;99.90;;;;;;5008749;28;20103;-71
2023/08/13 07:30:58;;;;;;;9.15;4.20;;;19.10;99.90;;;;;;4998200;28;20041;-71
2023/08/13 07:33:44;;;;;;;10.15;4.13;;;19.10;99.90;;;;;;4984699;28;20156;-74
2023/08/13 07:36:30;;;;;;;8.77;4.13;;;19.30;99.90;;;;;;4998245;28;20148;-72
2023/08/13 07:39:16;;;;;;;6.85;3.85;;;19.30;99.90;;;;;;4983511;28;20056;-73
2023/08/13 07:42:04;;;;;;;10.00;3.80;;;19.30;99.90;;;;;;4998869;28;20049;-72
2023/08/13 07:44:50;;;;;;;9.65;4.13;;;19.40;99.90;;;;;;4967106;28;20043;-72
2023/08/13 07:47:37;;;;;;;9.18;4.05;;;19.40;99.90;;;;;;4958606;28;20042;-72
2023/08/13 07:50:23;;;;;;;9.38;3.70;;;19.40;99.90;;;;;;4986002;28;20081;-73
2023/08/13 07:53:09;;;;;;;9.82;3.80;;;19.40;99.90;;;;;;4999606;28;20573;-74
2023/08/13 07:55:55;;;;;;;7.15;3.95;;;19.50;99.90;;;;;;5011276;28;20099;-72
2023/08/13 07:58:41;;;;;;;8.73;4.05;;;19.50;99.90;;;;;;4966655;28;20371;-72
2023/08/13 08:01:29;;;;;;;8.07;3.60;;;19.70;99.90;;;;;;4978138;28;20046;-74
2023/08/13 08:04:14;;;;;;;14.15;3.90;;;19.70;99.90;;;;;;5002451;28;20064;-72
2023/08/13 08:07:00;;;;;;;9.65;3.75;;;19.80;99.90;;;;;;4991960;28;20045;-73
2023/08/13 08:09:46;;;;;;;8.60;3.25;;;19.80;99.90;;;;;;5005913;28;20042;-72
2023/08/13 08:12:35;;;;;;;7.38;3.60;;;19.90;99.90;;;;;;4975153;28;20074;-72
2023/08/13 08:15:21;;;;;;;9.90;3.83;;;20.00;99.90;;;;;;5000675;28;20124;-71
2023/08/13 08:18:07;;;;;;;8.85;3.38;;;20.00;99.90;;;;;;5007754;28;20052;-72
2023/08/13 08:20:53;;;;;;;9.68;3.42;;;20.00;99.90;;;;;;5000293;28;20462;-72
2023/08/13 08:23:40;;;;;;;7.55;3.15;;;20.10;99.90;;;;;;4983548;28;20050;-73
2023/08/13 08:26:26;;;;;;;8.73;2.67;;;20.00;99.90;;;;;;4986134;28;20041;-72
2023/08/13 08:29:12;;;;;;;6.15;2.65;;;20.00;99.90;;;;;;4980547;28;20046;-73
2023/08/13 08:31:57;;;;;;;9.02;3.33;;;20.10;99.90;;;;;;4987629;28;20069;-73
2023/08/13 08:34:44;;;;;;;9.98;2.85;;;20.20;99.90;;;;;;5012179;28;20057;-73
2023/08/13 08:37:31;;;;;;;6.50;2.50;;;20.30;99.90;;;;;;5010551;28;20088;-73
2023/08/13 08:40:17;;;;;;;7.93;2.67;;;20.40;99.90;;;;;;4996922;28;20104;-73
2023/08/13 08:43:03;;;;;;;8.07;2.70;;;20.50;99.90;;;;;;4996794;28;20061;-73
2023/08/13 08:45:49;;;;;;;7.05;3.00;;;20.40;99.90;;;;;;4982041;28;20053;-73
2023/08/13 08:48:35;;;;;;;7.05;2.75;;;20.40;99.90;;;;;;4984185;28;20049;-73
2023/08/13 08:51:21;;;;;;;8.65;2.72;;;20.40;99.90;;;;;;4971249;28;20486;-72
2023/08/13 08:54:07;;;;;;;9.77;2.80;;;20.40;99.90;;;;;;4983776;28;20695;-72
2023/08/13 08:56:53;;;;;;;10.32;3.80;;;20.40;99.90;;;;;;4977766;28;20042;-72
2023/08/13 08:59:39;;;;;;;10.52;3.25;;;20.50;99.90;;;;;;4958219;28;20045;-72
2023/08/13 09:02:25;;;;;;;5.32;2.40;;;20.60;99.90;;;;;;4969722;28;20042;-72
2023/08/13 09:05:12;;;;;;;6.68;2.60;;;20.60;99.90;;;;;;4982673;28;20045;-72
2023/08/13 09:07:58;;;;;;;14.50;4.10;;;20.80;99.90;;;;;;4997301;28;20037;-72
2023/08/13 09:10:44;;;;;;;6.78;2.63;;;20.80;99.90;;;;;;4981640;28;20073;-74
2023/08/13 09:13:30;;;;;;;8.30;2.50;;;20.80;99.90;;;;;;4983041;28;20100;-72
2023/08/13 09:16:16;;;;;;;9.48;3.00;;;20.90;99.90;;;;;;4974572;28;20526;-73
2023/08/13 09:19:02;;;;;;;8.10;2.30;;;20.90;99.90;;;;;;4996628;28;20384;-73
2023/08/13 09:21:58;;;;;;;8.35;2.67;;;20.90;99.90;;;;;;4968828;28;20038;-72
2023/08/13 09:24:46;;;;;;;7.35;2.67;;;21.00;99.90;;;;;;4971637;28;20038;-73
2023/08/13 09:27:32;;;;;;;11.65;2.92;;;21.10;99.90;;;;;;4997613;28;20064;-72
2023/08/13 09:30:21;;;;;;;7.97;2.75;;;21.20;99.90;;;;;;4972383;28;20041;-72
2023/08/13 09:33:07;;;;;;;6.57;2.53;;;21.20;99.90;;;;;;4987149;28;20061;-72
2023/08/13 09:35:53;;;;;;;6.45;2.60;;;21.20;99.90;;;;;;4960267;28;20523;-72
2023/08/13 09:38:39;;;;;;;10.68;2.92;;;21.30;99.90;;;;;;4979694;28;20046;-72
2023/08/13 09:41:25;;;;;;;8.15;2.78;;;21.40;99.90;;;;;;4982017;28;20522;-72
2023/08/13 09:44:11;;;;;;;8.45;2.58;;;21.40;99.90;;;;;;4964380;28;20046;-72
2023/08/13 09:46:59;;;;;;;8.82;3.05;;;21.40;99.90;;;;;;4968604;28;20493;-71
2023/08/13 09:49:45;;;;;;;9.68;2.60;;;21.50;99.90;;;;;;4976782;28;20042;-72
2023/08/13 09:52:31;;;;;;;9.65;2.70;;;21.60;99.90;;;;;;4981044;28;20037;-72
2023/08/13 09:55:19;;;;;;;6.80;2.70;;;21.80;99.90;;;;;;4972926;28;20429;-72
2023/08/13 09:58:05;;;;;;;6.20;2.50;;;21.90;99.90;;;;;;4980101;28;20038;-73
2023/08/13 10:00:51;;;;;;;11.38;3.42;;;21.90;99.90;;;;;;4982144;28;20045;-72
2023/08/13 10:03:37;;;;;;;8.02;3.75;;;22.00;99.90;;;;;;4982042;28;20048;-72
2023/08/13 10:06:23;;;;;;;9.93;3.53;;;22.00;99.90;;;;;;4959730;28;20048;-72
2023/08/13 10:09:10;;;;;;;10.75;2.92;;;22.10;99.90;;;;;;4987463;28;20053;-72
2023/08/13 10:11:56;;;;;;;11.90;3.43;;;22.00;99.90;;;;;;4982755;28;20053;-73
2023/08/13 10:14:42;;;;;;;8.15;2.80;;;21.90;99.90;;;;;;4969049;28;20046;-73
2023/08/13 10:17:28;;;;;;;9.13;3.33;;;22.00;99.90;;;;;;4990379;28;20037;-72
2023/08/13 10:20:14;;;;;;;8.02;3.03;;;22.00;99.90;;;;;;4975931;28;20526;-73
2023/08/13 10:23:07;;;;;;;8.63;2.92;;;22.10;99.90;;;;;;4964600;28;20535;-72
2023/08/13 10:25:53;;;;;;;12.40;2.75;;;22.10;99.90;;;;;;4997048;28;20053;-72
2023/08/13 10:28:39;;;;;;;11.45;3.22;;;22.10;99.90;;;;;;4995290;28;20033;-72
2023/08/13 10:31:29;;;;;;;7.03;2.40;;;22.10;99.90;;;;;;4982344;28;20045;-72
2023/08/13 10:34:16;;;;;;;10.05;2.70;;;22.00;99.90;;;;;;5017023;28;20052;-72
2023/08/13 10:37:02;;;;;;;9.32;2.80;;;21.90;99.90;;;;;;4987959;28;20057;-72
2023/08/13 10:40:00;;;;;;;8.95;3.05;;;21.90;99.90;;;;;;4978154;28;20034;-72
2023/08/13 10:42:48;;;;;;;7.32;2.05;;;22.00;99.90;;;;;;5002860;28;20053;-73
2023/08/13 10:45:36;;;;;;;5.50;2.00;;;22.00;99.90;;;;;;4986727;28;20046;-75
2023/08/13 10:48:30;;;;;;;10.63;2.40;;;22.00;99.90;;;;;;4970043;28;20041;-75
2023/08/13 10:51:16;;;;;;;6.47;2.38;;;21.90;99.90;;;;;;4989918;28;20046;-76
2023/08/13 10:54:03;;;;;;;7.85;2.42;;;22.10;99.90;;;;;;4989318;28;20092;-76
2023/08/13 10:56:58;;;;;;;8.82;2.20;;;22.20;99.90;;;;;;5022032;28;20038;-75
2023/08/13 10:59:44;;;;;;;7.15;2.08;;;22.60;99.90;;;;;;4995969;28;20038;-73
2023/08/13 11:02:31;;;;;;;6.50;2.10;;;22.70;99.90;;;;;;5003657;28;20079;-74
2023/08/13 11:05:18;;;;;;;7.87;2.67;;;22.90;99.90;;;;;;5000069;28;20132;-74
2023/08/13 11:08:04;;;;;;;6.30;2.20;;;23.00;99.90;;;;;;5011318;28;20060;-73
2023/08/13 11:10:51;;;;;;;8.02;2.33;;;23.00;99.90;;;;;;4987559;28;20132;-74
2023/08/13 11:13:37;;;;;;;9.38;2.53;;;23.10;99.90;;;;;;4966801;28;20047;-73
2023/08/13 11:16:27;;;;;;;6.22;2.45;;;23.30;99.90;;;;;;4958400;28;20045;-74
2023/08/13 11:19:13;;;;;;;9.88;3.15;;;23.30;99.90;;;;;;4984709;28;20037;-74
2023/08/13 11:22:00;;;;;;;7.22;2.50;;;23.20;99.90;;;;;;4981005;28;20038;-73
2023/08/13 11:24:46;;;;;;;6.10;2.42;;;23.10;99.90;;;;;;4980759;28;20057;-73
2023/08/13 11:27:32;;;;;;;7.93;2.17;;;23.10;99.90;;;;;;4986242;28;20413;-74
2023/08/13 11:30:18;;;;;;;5.15;2.10;;;23.10;99.90;;;;;;4997588;28;20081;-74
2023/08/13 11:33:04;;;;;;;7.45;2.42;;;23.10;99.90;;;;;;4973083;28;20058;-73
2023/08/13 11:35:50;;;;;;;8.85;2.40;;;23.10;99.90;;;;;;4984380;28;20108;-74
2023/08/13 11:38:36;;;;;;;6.25;2.13;;;23.10;99.90;;;;;;4998354;28;20633;-74
2023/08/13 11:41:22;;;;;;;4.28;2.20;;;23.10;99.90;;;;;;4989097;28;20065;-74
2023/08/13 11:44:10;;;;;;;6.85;2.38;;;23.10;99.90;;;;;;4992044;28;20173;-74
2023/08/13 11:47:00;;;;;;;7.25;2.28;;;23.10;99.90;;;;;;4975130;28;20064;-74
2023/08/13 11:49:46;;;;;;;7.78;2.03;;;22.90;99.90;;;;;;4994025;28;20038;-74
2023/08/13 11:52:32;;;;;;;6.47;2.28;;;22.90;99.90;;;;;;4981842;28;20133;-74
2023/08/13 11:55:18;;;;;;;8.55;2.53;;;22.90;99.90;;;;;;4985524;28;20034;-74
2023/08/13 11:58:04;;;;;;;6.80;2.40;;;23.00;99.90;;;;;;4972102;28;20053;-74
2023/08/13 12:00:50;;;;;;;6.50;3.13;;;23.00;99.90;;;;;;4971377;28;20378;-74
2023/08/13 12:03:42;;;;;;;9.93;4.90;;;23.10;99.90;;;;;;4974157;28;20050;-74
2023/08/13 12:06:28;;;;;;;7.07;2.10;;;23.30;99.90;;;;;;4979867;28;20042;-74
2023/08/13 12:09:14;;;;;;;4.95;2.28;;;23.40;99.90;;;;;;4982756;28;20045;-74
2023/08/13 12:12:00;;;;;;;5.28;2.13;;;23.50;99.90;;;;;;4984224;28;20052;-74
2023/08/13 12:14:46;;;;;;;9.48;2.70;;;23.60;99.90;;;;;;4982385;28;20147;-74
2023/08/13 12:17:42;;;;;;;5.60;2.00;;;23.60;99.90;;;;;;4965445;28;20105;-74
2023/08/13 12:20:28;;;;;;;7.38;2.22;;;23.60;99.90;;;;;;4974103;28;20042;-74
2023/08/13 12:23:15;;;;;;;7.75;1.90;;;23.70;99.90;;;;;;4984741;28;20157;-74
2023/08/13 12:26:01;;;;;;;7.15;2.20;;;23.90;99.90;;;;;;4988952;28;20073;-74
2023/08/13 12:28:50;;;;;;;8.30;2.70;;;23.90;99.90;;;;;;4995195;28;20076;-74
2023/08/13 12:31:36;;;;;;;6.82;2.30;;;23.70;99.90;;;;;;4995956;28;20054;-74
2023/08/13 12:34:22;;;;;;;8.32;2.55;;;23.50;99.90;;;;;;4971744;28;20057;-74
2023/08/13 12:37:08;;;;;;;8.15;2.80;;;23.40;99.90;;;;;;4982650;28;20038;-73
2023/08/13 12:39:54;;;;;;;8.88;2.45;;;23.30;99.90;;;;;;4987368;28;20065;-73
2023/08/13 12:42:40;;;;;;;6.25;2.25;;;23.30;99.90;;;;;;4970735;28;20121;-73
2023/08/13 12:45:26;;;;;;;5.45;2.15;;;23.30;99.90;;;;;;4998375;28;20045;-74
2023/08/13 12:48:12;;;;;;;9.20;2.00;;;23.40;99.90;;;;;;4983551;28;20046;-73
2023/08/13 12:50:59;;;;;;;6.55;2.38;;;23.40;99.90;;;;;;4996594;28;20057;-73
2023/08/13 12:53:45;;;;;;;4.68;2.15;;;23.50;99.90;;;;;;4996316;28;20426;-73
2023/08/13 12:56:31;;;;;;;6.25;2.17;;;23.50;99.90;;;;;;4989576;28;20038;-74
2023/08/13 12:59:17;;;;;;;5.55;2.20;;;23.60;99.90;;;;;;4996162;28;20935;-73
2023/08/13 13:02:03;;;;;;;4.78;2.28;;;23.80;99.90;;;;;;4986714;28;20127;-74
2023/08/13 13:04:50;;;;;;;7.90;2.15;;;24.00;99.90;;;;;;5001887;28;20038;-73
2023/08/13 13:07:36;;;;;;;7.22;2.35;;;24.10;99.90;;;;;;4983613;28;20068;-74
2023/08/13 13:10:22;;;;;;;5.85;2.63;;;24.20;99.90;;;;;;4964841;28;20077;-74
2023/08/13 13:13:08;;;;;;;6.93;3.08;;;24.30;99.90;;;;;;4995403;28;20367;-74
2023/08/13 13:15:54;;;;;;;8.32;2.30;;;24.30;99.90;;;;;;4977718;28;20104;-74
2023/08/13 13:18:40;;;;;;;7.50;2.30;;;24.40;99.90;;;;;;4994279;28;20494;-74
2023/08/13 13:21:26;;;;;;;5.68;2.05;;;24.50;99.90;;;;;;4975900;28;20140;-74
2023/08/13 13:24:12;;;;;;;7.90;3.00;;;24.70;99.90;;;;;;4981999;28;20637;-74
2023/08/13 13:26:58;;;;;;;5.72;2.35;;;24.80;99.90;;;;;;4994370;28;20048;-74
2023/08/13 13:29:45;;;;;;;4.57;2.00;;;24.70;99.90;;;;;;5010293;28;20052;-74
2023/08/13 13:32:31;;;;;;;5.20;2.50;;;24.80;99.90;;;;;;4982459;28;20038;-73
2023/08/13 13:35:17;;;;;;;6.07;2.53;;;25.00;99.90;;;;;;4986522;28;20038;-74
2023/08/13 13:38:03;;;;;;;8.27;2.60;;;25.00;99.90;;;;;;4980832;28;20042;-73
2023/08/13 13:40:49;;;;;;;5.10;2.13;;;25.00;99.90;;;;;;4992484;28;20049;-74
2023/08/13 13:43:35;;;;;;;6.50;2.20;;;25.20;99.90;;;;;;4996458;28;20068;-73
2023/08/13 13:46:21;;;;;;;3.60;1.90;;;25.20;99.90;;;;;;4983177;28;20553;-73
2023/08/13 13:49:06;;;;;;;6.82;2.30;;;25.10;99.90;;;;;;5009636;28;20049;-74
2023/08/13 13:51:53;;;;;;;6.90;2.40;;;25.10;99.90;;;;;;4969260;28;20077;-74
2023/08/13 13:54:39;;;;;;;10.20;2.67;;;25.10;99.90;;;;;;5006692;28;20049;-74
2023/08/13 13:57:26;;;;;;;5.13;2.25;;;24.80;99.90;;;;;;4981017;28;20068;-73
2023/08/13 14:00:13;;;;;;;5.25;2.47;;;24.70;99.90;;;;;;4957253;28;20070;-73
2023/08/13 14:02:59;;;;;;;7.60;2.35;;;24.60;99.90;;;;;;4995615;28;20042;-73
2023/08/13 14:05:51;;;;;;;5.28;2.20;;;24.60;99.90;;;;;;4989635;28;20052;-73
2023/08/13 14:08:37;;;;;;;4.40;2.20;;;24.50;99.90;;;;;;4977295;28;20042;-74
2023/08/13 14:11:23;;;;;;;7.88;2.72;;;24.60;99.90;;;;;;4980884;28;20053;-74
2023/08/13 14:14:09;;;;;;;7.97;2.10;;;24.60;99.90;;;;;;4987056;28;20418;-74
2023/08/13 14:16:55;;;;;;;6.50;2.40;;;24.70;99.90;;;;;;4981628;28;20117;-74
2023/08/13 14:19:42;;;;;;;5.05;2.40;;;24.70;99.90;;;;;;4968046;28;20038;-73
2023/08/13 14:22:30;;;;;;;5.53;2.30;;;24.70;99.90;;;;;;4970598;28;20393;-74
2023/08/13 14:25:16;;;;;;;6.15;2.13;;;24.70;99.90;;;;;;4967883;28;20046;-74